createdAt,value
2018-09-18T00:01:13.350Z,99.90
2018-09-18T00:05:17.749Z,99.90
2018-09-18T00:09:22.111Z,99.90
2018-09-18T00:13:26.345Z,99.90
2018-09-18T00:17:30.868Z,99.90
2018-09-18T00:21:35.071Z,99.90
2018-09-18T00:25:39.426Z,99.90
2018-09-18T00:29:43.855Z,99.90
2018-09-18T00:33:48.085Z,99.90
2018-09-18T00:37:52.390Z,99.90
2018-09-18T00:41:56.593Z,99.90
2018-09-18T00:46:00.911Z,99.90
2018-09-18T00:50:05.255Z,99.90
2018-09-18T00:54:09.837Z,99.90
2018-09-18T00:58:14.049Z,99.90
2018-09-18T01:02:18.380Z,99.90
2018-09-18T01:06:22.649Z,99.90
2018-09-18T01:10:27.047Z,99.90
2018-09-18T01:14:31.476Z,99.90
2018-09-18T01:18:41.392Z,99.90
2018-09-18T01:22:45.618Z,99.90
2018-09-18T01:26:49.932Z,99.90
2018-09-18T01:30:54.135Z,99.90
2018-09-18T01:34:58.479Z,99.90
2018-09-18T01:39:02.794Z,99.90
2018-09-18T01:43:07.129Z,99.90
2018-09-18T01:47:11.396Z,99.90
2018-09-18T01:51:15.700Z,99.90
2018-09-18T01:55:20.020Z,99.90
2018-09-18T01:59:24.409Z,99.90
2018-09-18T02:03:28.734Z,99.90
2018-09-18T02:07:33.091Z,99.90
2018-09-18T02:11:37.589Z,99.90
2018-09-18T02:15:41.788Z,99.90
2018-09-18T02:19:46.234Z,99.90
2018-09-18T02:23:50.450Z,99.90
2018-09-18T02:27:54.911Z,99.90
2018-09-18T02:31:59.215Z,99.90
2018-09-18T02:36:03.693Z,99.90
2018-09-18T02:40:08.294Z,99.90
2018-09-18T02:44:12.650Z,99.90
2018-09-18T02:48:16.841Z,99.90
2018-09-18T02:52:21.182Z,99.90
2018-09-18T02:56:25.495Z,99.90
2018-09-18T03:00:29.910Z,99.90
2018-09-18T03:04:34.120Z,99.90
2018-09-18T03:08:38.623Z,99.90
2018-09-18T03:12:42.836Z,99.90
2018-09-18T03:16:47.082Z,99.90
2018-09-18T03:20:51.389Z,99.90
2018-09-18T03:24:55.655Z,99.90
2018-09-18T03:29:00.029Z,99.90
2018-09-18T03:33:04.365Z,99.90
2018-09-18T03:37:08.888Z,99.90
2018-09-18T03:41:13.106Z,99.90
2018-09-18T03:45:17.457Z,99.90
2018-09-18T03:49:21.678Z,99.90
2018-09-18T03:53:25.976Z,99.90
2018-09-18T03:57:30.222Z,99.90
2018-09-18T04:01:34.615Z,99.90
2018-09-18T04:05:38.902Z,99.90
2018-09-18T04:09:43.467Z,99.90
2018-09-18T04:13:47.857Z,99.90
2018-09-18T04:17:52.172Z,99.90
2018-09-18T04:21:56.497Z,99.90
2018-09-18T04:26:00.717Z,99.90
2018-09-18T04:30:05.163Z,99.90
2018-09-18T04:34:09.567Z,99.90
2018-09-18T04:38:13.902Z,99.90
2018-09-18T04:42:18.153Z,99.90
2018-09-18T04:46:22.969Z,99.90
2018-09-18T04:50:27.185Z,99.90
2018-09-18T04:54:31.382Z,99.90
2018-09-18T04:58:35.601Z,99.90
2018-09-18T05:02:40.408Z,99.90
2018-09-18T05:06:44.736Z,99.90
2018-09-18T05:10:49.019Z,99.90
2018-09-18T05:14:53.584Z,99.90
2018-09-18T05:18:57.996Z,99.90
2018-09-18T05:23:02.295Z,99.90
2018-09-18T05:27:06.647Z,99.90
2018-09-18T05:31:11.980Z,99.90
2018-09-18T05:35:16.204Z,99.90
2018-09-18T05:39:20.624Z,99.90
2018-09-18T05:43:25.019Z,99.90
2018-09-18T05:47:29.234Z,99.90
2018-09-18T05:51:33.829Z,99.90
2018-09-18T05:55:38.065Z,99.90
2018-09-18T05:59:43.449Z,99.90
2018-09-18T06:03:47.661Z,99.90
2018-09-18T06:07:52.017Z,99.90
2018-09-18T06:11:56.253Z,99.90
2018-09-18T06:16:00.488Z,99.90
2018-09-18T06:20:04.996Z,99.90
2018-09-18T06:24:09.485Z,99.90
2018-09-18T06:28:14.796Z,99.90
2018-09-18T06:32:19.049Z,99.90
2018-09-18T06:36:23.448Z,99.90
2018-09-18T06:40:27.677Z,99.90
2018-09-18T06:44:32.036Z,99.90
2018-09-18T06:48:36.465Z,99.90
2018-09-18T06:52:40.822Z,99.90
2018-09-18T06:56:45.238Z,99.90
2018-09-18T07:00:49.468Z,99.90
2018-09-18T07:04:53.697Z,99.90
2018-09-18T07:08:58.149Z,99.90
2018-09-18T07:13:02.401Z,99.90
2018-09-18T07:17:06.740Z,99.90
2018-09-18T07:21:10.981Z,99.90
2018-09-18T07:25:15.209Z,99.90
2018-09-18T07:29:19.635Z,99.90
2018-09-18T07:33:23.832Z,99.90
2018-09-18T07:37:28.501Z,96.00
2018-09-18T07:41:32.728Z,94.60
2018-09-18T07:45:37.011Z,94.30
2018-09-18T07:49:41.227Z,93.70
2018-09-18T07:53:45.541Z,92.00
2018-09-18T07:57:49.756Z,91.10
2018-09-18T08:01:53.996Z,89.20
2018-09-18T08:05:58.211Z,86.60
2018-09-18T08:10:02.457Z,88.20
2018-09-18T08:14:07.905Z,87.30
2018-09-18T08:18:12.177Z,84.90
2018-09-18T08:22:16.682Z,85.20
2018-09-18T08:26:21.086Z,82.30
2018-09-18T08:30:26.821Z,80.90
2018-09-18T08:34:31.594Z,80.90
2018-09-18T08:38:35.798Z,83.40
2018-09-18T08:42:40.419Z,83.50
2018-09-18T08:46:45.222Z,78.80
2018-09-18T08:50:49.816Z,78.00
2018-09-18T08:54:54.142Z,74.10
2018-09-18T08:58:58.591Z,74.60
2018-09-18T09:03:02.832Z,74.00
2018-09-18T09:07:07.172Z,73.20
2018-09-18T09:11:11.698Z,72.50
2018-09-18T09:15:22.034Z,69.50
2018-09-18T09:19:26.221Z,64.30
2018-09-18T09:23:31.099Z,66.00
2018-09-18T09:27:35.631Z,65.10
2018-09-18T09:31:39.914Z,66.00
2018-09-18T09:35:44.250Z,66.80
2018-09-18T09:39:48.470Z,65.00
2018-09-18T09:43:53.451Z,66.40
2018-09-18T09:47:57.809Z,65.00
2018-09-18T09:52:02.442Z,63.80
2018-09-18T09:56:06.689Z,61.80
2018-09-18T10:00:16.262Z,60.30
2018-09-18T10:04:20.675Z,58.00
2018-09-18T10:08:25.516Z,56.20
2018-09-18T10:12:30.046Z,55.60
2018-09-18T10:16:35.279Z,55.80
2018-09-18T10:20:41.094Z,54.90
2018-09-18T10:24:45.873Z,52.00
2018-09-18T10:28:50.618Z,52.20
2018-09-18T10:32:58.300Z,48.60
2018-09-18T10:37:02.743Z,47.70
2018-09-18T10:41:07.560Z,46.70
2018-09-18T10:45:11.934Z,44.40
2018-09-18T10:49:16.277Z,44.00
2018-09-18T10:53:21.084Z,40.50
2018-09-18T10:57:25.377Z,41.20
2018-09-18T11:01:29.734Z,39.80
2018-09-18T11:05:34.727Z,38.80
2018-09-18T11:09:39.035Z,37.90
2018-09-18T11:13:48.357Z,38.20
2018-09-18T11:17:52.680Z,35.40
2018-09-18T11:21:57.273Z,38.00
2018-09-18T11:26:03.745Z,36.00
2018-09-18T11:30:08.061Z,34.60
2018-09-18T11:34:13.762Z,34.00
2018-09-18T11:38:17.983Z,33.80
2018-09-18T11:42:22.311Z,32.50
2018-09-18T11:46:26.795Z,35.20
2018-09-18T11:50:31.037Z,32.80
2018-09-18T11:54:36.379Z,31.90
2018-09-18T11:58:40.585Z,32.20
2018-09-18T12:02:46.360Z,31.10
2018-09-18T12:06:50.583Z,30.30
2018-09-18T12:10:56.948Z,32.10
2018-09-18T12:15:01.261Z,35.50
2018-09-18T12:19:05.569Z,33.40
2018-09-18T12:23:09.944Z,36.30
2018-09-18T12:27:14.406Z,39.10
2018-09-18T12:31:18.809Z,36.00
2018-09-18T12:35:23.505Z,37.00
2018-09-18T12:39:27.865Z,30.70
2018-09-18T12:43:32.214Z,28.80
2018-09-18T12:47:40.336Z,27.70
2018-09-18T12:51:44.555Z,28.90
2018-09-18T12:55:49.192Z,29.70
2018-09-18T12:59:54.398Z,27.80
2018-09-18T13:03:59.805Z,27.00
2018-09-18T13:08:04.132Z,26.10
2018-09-18T13:12:10.792Z,26.50
2018-09-18T13:16:15.202Z,26.60
2018-09-18T13:20:19.564Z,26.40
2018-09-18T13:24:24.035Z,26.70
2018-09-18T13:28:28.839Z,27.50
2018-09-18T13:32:33.616Z,25.90
2018-09-18T13:36:38.479Z,24.40
2018-09-18T13:40:42.807Z,24.00
2018-09-18T13:44:47.538Z,25.50
2018-09-18T13:48:52.134Z,25.30
2018-09-18T13:52:56.567Z,24.00
2018-09-18T13:57:01.548Z,25.70
2018-09-18T14:01:06.065Z,26.90
2018-09-18T14:05:10.539Z,31.60
2018-09-18T14:09:14.777Z,34.40
2018-09-18T14:13:24.330Z,37.60
2018-09-18T14:17:29.449Z,39.10
2018-09-18T14:21:34.508Z,40.30
2018-09-18T14:25:40.310Z,39.10
2018-09-18T14:29:45.469Z,39.10
2018-09-18T14:33:50.348Z,37.20
2018-09-18T14:37:55.409Z,36.60
2018-09-18T14:42:01.272Z,38.50
2018-09-18T14:46:07.505Z,37.30
2018-09-18T14:50:12.713Z,39.50
2018-09-18T14:54:17.596Z,39.10
2018-09-18T14:58:25.689Z,42.30
2018-09-18T15:02:31.420Z,46.30
2018-09-18T15:06:36.572Z,47.10
2018-09-18T15:10:41.380Z,47.00
2018-09-18T15:14:46.628Z,47.80
2018-09-18T15:18:50.982Z,50.10
2018-09-18T15:22:55.697Z,51.10
2018-09-18T15:27:00.585Z,54.20
2018-09-18T15:31:06.179Z,53.20
2018-09-18T15:35:11.692Z,54.40
2018-09-18T15:39:17.011Z,56.30
2018-09-18T15:43:22.308Z,59.10
2018-09-18T15:47:27.581Z,65.30
2018-09-18T15:51:32.302Z,66.90
2018-09-18T15:55:37.604Z,67.20
2018-09-18T15:59:43.335Z,66.40
2018-09-18T16:03:48.240Z,68.00
2018-09-18T16:07:52.699Z,67.60
2018-09-18T16:11:57.868Z,69.00
2018-09-18T16:16:02.351Z,68.40
2018-09-18T16:20:06.725Z,69.60
2018-09-18T16:24:11.169Z,71.20
2018-09-18T16:28:15.418Z,72.10
2018-09-18T16:32:19.743Z,72.80
2018-09-18T16:36:24.072Z,75.00
2018-09-18T16:40:29.032Z,74.70
2018-09-18T16:44:33.540Z,77.50
2018-09-18T16:48:38.975Z,78.90
2018-09-18T16:52:43.193Z,79.70
2018-09-18T16:56:47.477Z,82.70
2018-09-18T17:00:51.691Z,84.40
2018-09-18T17:04:56.246Z,86.00
2018-09-18T17:09:00.828Z,87.50
2018-09-18T17:13:05.220Z,87.20
2018-09-18T17:17:09.495Z,88.10
2018-09-18T17:21:13.930Z,90.20
2018-09-18T17:25:19.324Z,90.30
2018-09-18T17:29:23.547Z,90.20
2018-09-18T17:33:27.854Z,90.20
2018-09-18T17:37:32.341Z,90.20
2018-09-18T17:41:36.768Z,90.30
2018-09-18T17:45:41.032Z,89.80
2018-09-18T17:49:45.374Z,90.20
2018-09-18T17:53:49.593Z,90.90
2018-09-18T17:57:54.106Z,91.70
2018-09-18T18:01:58.754Z,91.50
2018-09-18T18:06:03.467Z,92.20
2018-09-18T18:10:08.543Z,93.10
2018-09-18T18:14:13.235Z,93.20
2018-09-18T18:18:17.758Z,93.70
2018-09-18T18:22:22.863Z,93.90
2018-09-18T18:26:27.545Z,93.20
2018-09-18T18:30:34.874Z,92.80
2018-09-18T18:34:39.661Z,92.80
2018-09-18T18:38:44.485Z,92.10
2018-09-18T18:42:49.500Z,92.10
2018-09-18T18:46:54.773Z,92.50
2018-09-18T18:50:59.137Z,92.90
2018-09-18T18:55:03.434Z,94.40
2018-09-18T18:59:07.681Z,95.10
2018-09-18T19:03:11.981Z,95.80
2018-09-18T19:07:16.233Z,96.70
2018-09-18T19:11:21.551Z,97.40
2018-09-18T19:15:26.168Z,97.50
2018-09-18T19:19:30.612Z,98.40
2018-09-18T19:23:35.366Z,98.60
2018-09-18T19:27:39.814Z,99.30
2018-09-18T19:31:44.133Z,99.90
2018-09-18T19:35:49.584Z,99.90
2018-09-18T19:39:53.911Z,99.90
2018-09-18T19:43:58.250Z,99.90
2018-09-18T19:48:02.492Z,99.90
2018-09-18T19:52:07.235Z,99.90
2018-09-18T19:56:11.440Z,99.90
2018-09-18T20:00:15.965Z,99.90
2018-09-18T20:04:20.547Z,99.90
2018-09-18T20:08:25.238Z,99.90
2018-09-18T20:12:37.299Z,99.90
2018-09-18T20:16:41.694Z,99.90
2018-09-18T20:20:45.947Z,99.90
2018-09-18T20:24:50.231Z,99.90
2018-09-18T20:28:54.563Z,99.90
2018-09-18T20:32:58.752Z,99.90
2018-09-18T20:37:03.096Z,99.90
2018-09-18T20:41:07.409Z,99.90
2018-09-18T20:45:11.730Z,99.90
2018-09-18T20:49:15.929Z,99.90
2018-09-18T20:53:20.188Z,99.90
2018-09-18T20:57:24.406Z,99.90
2018-09-18T21:01:28.709Z,99.90
2018-09-18T21:05:32.951Z,99.90
2018-09-18T21:09:37.335Z,99.90
2018-09-18T21:13:41.524Z,99.90
2018-09-18T21:17:45.910Z,99.90
2018-09-18T21:21:50.171Z,99.90
2018-09-18T21:26:13.946Z,99.90
2018-09-18T21:30:18.505Z,99.90
2018-09-18T21:34:22.823Z,99.90
2018-09-18T21:38:27.007Z,99.90
2018-09-18T21:42:31.256Z,99.90
2018-09-18T21:46:35.451Z,99.90
2018-09-18T21:50:40.127Z,99.90
2018-09-18T21:54:44.311Z,99.90
2018-09-18T21:58:48.653Z,99.90
2018-09-18T22:02:52.833Z,99.90
2018-09-18T22:06:57.225Z,99.90
2018-09-18T22:11:01.440Z,99.90
2018-09-18T22:15:05.766Z,99.90
2018-09-18T22:19:09.980Z,99.90
2018-09-18T22:23:14.179Z,99.90
2018-09-18T22:27:18.357Z,99.90
2018-09-18T22:31:22.678Z,99.90
2018-09-18T22:35:26.882Z,99.90
2018-09-18T22:39:31.125Z,99.90
2018-09-18T22:43:35.303Z,99.90
2018-09-18T22:47:39.604Z,99.90
2018-09-18T22:51:43.812Z,99.90
2018-09-18T22:55:48.032Z,99.90
2018-09-18T22:59:52.474Z,99.90
2018-09-18T23:03:56.728Z,99.90
2018-09-18T23:08:00.925Z,99.90
2018-09-18T23:12:05.242Z,99.90
2018-09-18T23:16:09.424Z,99.90
2018-09-18T23:20:13.700Z,99.90
2018-09-18T23:24:18.029Z,99.90
2018-09-18T23:28:22.251Z,99.90
2018-09-18T23:32:26.436Z,99.90
2018-09-18T23:36:30.765Z,99.90
2018-09-18T23:40:34.985Z,99.90
2018-09-18T23:44:39.275Z,99.90
2018-09-18T23:48:43.572Z,99.90
2018-09-18T23:52:47.889Z,99.90
2018-09-18T23:56:52.083Z,99.90
